sensor_id;sensor_type;location;lat;lon;timestamp;P1;durP1;ratioP1;P2;durP2;ratioP2
29162;SDS011;20331;53.144;8.208;2023-06-10T00:09:11;5.72;;;3.00;;
29162;SDS011;20331;53.144;8.208;2023-06-10T00:19:36;8.43;;;3.38;;
29162;SDS011;20331;53.144;8.208;2023-06-10T00:29:57;7.28;;;2.97;;
29162;SDS011;20331;53.144;8.208;2023-06-10T00:40:19;8.77;;;3.40;;
29162;SDS011;20331;53.144;8.208;2023-06-10T00:50:41;6.35;;;3.55;;
29162;SDS011;20331;53.144;8.208;2023-06-10T01:01:03;6.85;;;3.35;;
29162;SDS011;20331;53.144;8.208;2023-06-10T01:11:28;12.32;;;4.00;;
29162;SDS011;20331;53.144;8.208;2023-06-10T01:21:55;9.15;;;3.90;;
29162;SDS011;20331;53.144;8.208;2023-06-10T01:32:18;13.00;;;4.15;;
29162;SDS011;20331;53.144;8.208;2023-06-10T01:53:09;7.80;;;3.85;;
29162;SDS011;20331;53.144;8.208;2023-06-10T02:03:31;11.30;;;4.25;;
29162;SDS011;20331;53.144;8.208;2023-06-10T02:13:53;11.80;;;4.97;;
29162;SDS011;20331;53.144;8.208;2023-06-10T02:24:14;11.00;;;4.68;;
29162;SDS011;20331;53.144;8.208;2023-06-10T02:34:36;9.02;;;3.90;;
29162;SDS011;20331;53.144;8.208;2023-06-10T02:44:58;11.43;;;4.88;;
29162;SDS011;20331;53.144;8.208;2023-06-10T02:55:20;12.50;;;5.18;;
29162;SDS011;20331;53.144;8.208;2023-06-10T03:05:42;11.48;;;4.90;;
29162;SDS011;20331;53.144;8.208;2023-06-10T03:16:04;11.15;;;5.00;;
29162;SDS011;20331;53.144;8.208;2023-06-10T03:26:26;13.32;;;5.50;;
29162;SDS011;20331;53.144;8.208;2023-06-10T03:36:48;10.88;;;5.68;;
29162;SDS011;20331;53.144;8.208;2023-06-10T03:47:10;12.07;;;6.25;;
29162;SDS011;20331;53.144;8.208;2023-06-10T03:57:34;12.25;;;5.32;;
29162;SDS011;20331;53.144;8.208;2023-06-10T04:07:55;15.88;;;6.03;;
29162;SDS011;20331;53.144;8.208;2023-06-10T04:18:18;13.73;;;5.53;;
29162;SDS011;20331;53.144;8.208;2023-06-10T04:39:01;14.73;;;5.55;;
29162;SDS011;20331;53.144;8.208;2023-06-10T04:49:23;11.93;;;6.25;;
29162;SDS011;20331;53.144;8.208;2023-06-10T05:10:06;11.23;;;5.00;;
29162;SDS011;20331;53.144;8.208;2023-06-10T05:20:28;9.48;;;4.72;;
29162;SDS011;20331;53.144;8.208;2023-06-10T05:30:50;11.93;;;5.13;;
29162;SDS011;20331;53.144;8.208;2023-06-10T05:41:11;12.55;;;4.20;;
29162;SDS011;20331;53.144;8.208;2023-06-10T06:01:55;14.70;;;4.22;;
29162;SDS011;20331;53.144;8.208;2023-06-10T06:12:16;8.30;;;4.30;;
29162;SDS011;20331;53.144;8.208;2023-06-10T06:22:38;10.60;;;5.63;;
29162;SDS011;20331;53.144;8.208;2023-06-10T06:32:59;15.60;;;7.20;;
29162;SDS011;20331;53.144;8.208;2023-06-10T06:43:22;13.70;;;6.70;;
29162;SDS011;20331;53.144;8.208;2023-06-10T06:53:45;12.05;;;6.57;;
29162;SDS011;20331;53.144;8.208;2023-06-10T07:04:06;16.45;;;6.82;;
29162;SDS011;20331;53.144;8.208;2023-06-10T07:14:28;13.10;;;5.82;;
29162;SDS011;20331;53.144;8.208;2023-06-10T07:24:50;9.85;;;5.78;;
29162;SDS011;20331;53.144;8.208;2023-06-10T07:35:13;8.35;;;5.38;;
29162;SDS011;20331;53.144;8.208;2023-06-10T07:45:35;9.88;;;5.18;;
29162;SDS011;20331;53.144;8.208;2023-06-10T07:55:56;11.68;;;4.90;;
29162;SDS011;20331;53.144;8.208;2023-06-10T08:06:18;11.57;;;4.63;;
29162;SDS011;20331;53.144;8.208;2023-06-10T08:16:40;11.85;;;4.70;;
29162;SDS011;20331;53.144;8.208;2023-06-10T08:27:02;11.77;;;4.93;;
29162;SDS011;20331;53.144;8.208;2023-06-10T08:37:24;9.27;;;5.50;;
29162;SDS011;20331;53.144;8.208;2023-06-10T08:47:46;10.88;;;5.57;;
29162;SDS011;20331;53.144;8.208;2023-06-10T08:58:13;12.10;;;5.65;;
29162;SDS011;20331;53.144;8.208;2023-06-10T09:08:35;12.60;;;6.70;;
29162;SDS011;20331;53.144;8.208;2023-06-10T09:18:57;11.63;;;6.32;;
29162;SDS011;20331;53.144;8.208;2023-06-10T09:29:20;12.85;;;6.70;;
29162;SDS011;20331;53.144;8.208;2023-06-10T09:39:41;9.70;;;5.97;;
29162;SDS011;20331;53.144;8.208;2023-06-10T09:50:03;12.70;;;5.40;;
29162;SDS011;20331;53.144;8.208;2023-06-10T10:00:26;9.55;;;4.78;;
29162;SDS011;20331;53.144;8.208;2023-06-10T10:10:48;8.05;;;4.13;;
29162;SDS011;20331;53.144;8.208;2023-06-10T10:21:13;10.65;;;3.53;;
29162;SDS011;20331;53.144;8.208;2023-06-10T10:31:37;6.38;;;3.05;;
29162;SDS011;20331;53.144;8.208;2023-06-10T10:42:00;11.02;;;3.17;;
29162;SDS011;20331;53.144;8.208;2023-06-10T10:52:25;8.48;;;3.25;;
29162;SDS011;20331;53.144;8.208;2023-06-10T11:02:48;9.48;;;3.28;;
29162;SDS011;20331;53.144;8.208;2023-06-10T11:13:15;8.70;;;3.10;;
29162;SDS011;20331;53.144;8.208;2023-06-10T11:23:40;7.75;;;2.78;;
29162;SDS011;20331;53.144;8.208;2023-06-10T11:34:03;6.10;;;2.90;;
29162;SDS011;20331;53.144;8.208;2023-06-10T11:44:27;7.30;;;3.28;;
29162;SDS011;20331;53.144;8.208;2023-06-10T11:54:54;4.93;;;2.55;;
29162;SDS011;20331;53.144;8.208;2023-06-10T12:05:16;6.63;;;2.97;;
29162;SDS011;20331;53.144;8.208;2023-06-10T12:15:40;4.88;;;2.17;;
29162;SDS011;20331;53.144;8.208;2023-06-10T12:26:02;4.80;;;2.13;;
29162;SDS011;20331;53.144;8.208;2023-06-10T12:36:24;4.00;;;2.00;;
29162;SDS011;20331;53.144;8.208;2023-06-10T12:46:45;5.50;;;2.28;;
29162;SDS011;20331;53.144;8.208;2023-06-10T13:07:37;4.50;;;1.90;;
29162;SDS011;20331;53.144;8.208;2023-06-10T13:18:00;3.42;;;1.75;;
29162;SDS011;20331;53.144;8.208;2023-06-10T13:28:21;6.15;;;2.50;;
29162;SDS011;20331;53.144;8.208;2023-06-10T13:38:43;3.05;;;1.63;;
29162;SDS011;20331;53.144;8.208;2023-06-10T13:49:05;4.88;;;1.85;;
29162;SDS011;20331;53.144;8.208;2023-06-10T13:59:26;4.13;;;1.98;;
29162;SDS011;20331;53.144;8.208;2023-06-10T14:09:48;3.25;;;2.00;;
29162;SDS011;20331;53.144;8.208;2023-06-10T14:20:10;7.75;;;2.03;;
29162;SDS011;20331;53.144;8.208;2023-06-10T14:30:32;5.82;;;2.28;;
29162;SDS011;20331;53.144;8.208;2023-06-10T14:40:53;5.80;;;2.13;;
29162;SDS011;20331;53.144;8.208;2023-06-10T14:51:15;6.80;;;2.40;;
29162;SDS011;20331;53.144;8.208;2023-06-10T15:01:37;4.20;;;2.22;;
29162;SDS011;20331;53.144;8.208;2023-06-10T15:11:58;4.85;;;2.58;;
29162;SDS011;20331;53.144;8.208;2023-06-10T15:22:24;3.47;;;2.30;;
29162;SDS011;20331;53.144;8.208;2023-06-10T15:32:46;3.85;;;2.45;;
29162;SDS011;20331;53.144;8.208;2023-06-10T15:43:07;3.92;;;2.25;;
29162;SDS011;20331;53.144;8.208;2023-06-10T15:53:29;7.00;;;2.45;;
29162;SDS011;20331;53.144;8.208;2023-06-10T16:03:51;2.85;;;2.53;;
29162;SDS011;20331;53.144;8.208;2023-06-10T16:14:12;3.83;;;2.50;;
29162;SDS011;20331;53.144;8.208;2023-06-10T16:24:35;6.85;;;2.60;;
29162;SDS011;20331;53.144;8.208;2023-06-10T16:34:56;6.38;;;3.00;;
29162;SDS011;20331;53.144;8.208;2023-06-10T16:45:18;6.13;;;2.92;;
29162;SDS011;20331;53.144;8.208;2023-06-10T16:55:40;4.38;;;3.15;;
29162;SDS011;20331;53.144;8.208;2023-06-10T17:06:05;4.32;;;3.05;;
29162;SDS011;20331;53.144;8.208;2023-06-10T17:16:27;5.68;;;2.80;;
29162;SDS011;20331;53.144;8.208;2023-06-10T17:26:49;4.35;;;3.00;;
29162;SDS011;20331;53.144;8.208;2023-06-10T17:37:10;4.68;;;3.22;;
29162;SDS011;20331;53.144;8.208;2023-06-10T17:47:32;7.45;;;3.65;;
29162;SDS011;20331;53.144;8.208;2023-06-10T17:57:54;6.97;;;3.30;;
29162;SDS011;20331;53.144;8.208;2023-06-10T18:08:16;8.02;;;3.55;;
29162;SDS011;20331;53.144;8.208;2023-06-10T18:18:37;5.78;;;3.15;;
29162;SDS011;20331;53.144;8.208;2023-06-10T18:28:59;10.02;;;3.35;;
29162;SDS011;20331;53.144;8.208;2023-06-10T18:39:20;12.82;;;4.85;;
29162;SDS011;20331;53.144;8.208;2023-06-10T18:49:42;6.28;;;4.13;;
29162;SDS011;20331;53.144;8.208;2023-06-10T19:00:04;11.20;;;4.97;;
29162;SDS011;20331;53.144;8.208;2023-06-10T19:10:26;6.72;;;4.28;;
29162;SDS011;20331;53.144;8.208;2023-06-10T19:20:48;8.85;;;4.07;;
29162;SDS011;20331;53.144;8.208;2023-06-10T19:31:10;7.53;;;3.30;;
29162;SDS011;20331;53.144;8.208;2023-06-10T19:41:32;8.55;;;3.85;;
29162;SDS011;20331;53.144;8.208;2023-06-10T19:51:53;8.73;;;3.40;;
29162;SDS011;20331;53.144;8.208;2023-06-10T20:02:15;8.30;;;3.70;;
29162;SDS011;20331;53.144;8.208;2023-06-10T20:12:37;8.75;;;3.60;;
29162;SDS011;20331;53.144;8.208;2023-06-10T20:22:58;7.18;;;3.25;;
29162;SDS011;20331;53.144;8.208;2023-06-10T20:33:20;8.27;;;3.35;;
29162;SDS011;20331;53.144;8.208;2023-06-10T20:43:42;10.13;;;3.25;;
29162;SDS011;20331;53.144;8.208;2023-06-10T20:54:04;10.98;;;3.63;;
29162;SDS011;20331;53.144;8.208;2023-06-10T21:04:25;7.82;;;3.50;;
29162;SDS011;20331;53.144;8.208;2023-06-10T21:14:47;9.32;;;4.03;;
29162;SDS011;20331;53.144;8.208;2023-06-10T21:25:09;11.75;;;4.00;;
29162;SDS011;20331;53.144;8.208;2023-06-10T21:35:31;8.20;;;4.03;;
29162;SDS011;20331;53.144;8.208;2023-06-10T21:45:53;13.68;;;3.92;;
29162;SDS011;20331;53.144;8.208;2023-06-10T21:56:17;9.70;;;3.83;;
29162;SDS011;20331;53.144;8.208;2023-06-10T22:06:39;7.88;;;3.70;;
29162;SDS011;20331;53.144;8.208;2023-06-10T22:17:01;10.85;;;3.55;;
29162;SDS011;20331;53.144;8.208;2023-06-10T22:27:23;9.65;;;4.10;;
29162;SDS011;20331;53.144;8.208;2023-06-10T22:37:45;9.00;;;4.32;;
29162;SDS011;20331;53.144;8.208;2023-06-10T22:48:06;10.88;;;4.20;;
29162;SDS011;20331;53.144;8.208;2023-06-10T22:58:28;11.40;;;4.20;;
29162;SDS011;20331;53.144;8.208;2023-06-10T23:08:50;8.75;;;4.22;;
29162;SDS011;20331;53.144;8.208;2023-06-10T23:19:12;11.38;;;4.30;;
29162;SDS011;20331;53.144;8.208;2023-06-10T23:29:39;10.27;;;4.63;;
29162;SDS011;20331;53.144;8.208;2023-06-10T23:40:19;8.87;;;4.67;;
29162;SDS011;20331;53.144;8.208;2023-06-10T23:50:40;10.43;;;5.28;;
